createdAt,value
2024-04-17T00:03:47.783Z,95225.84
2024-04-17T00:08:53.941Z,95242.31
2024-04-17T00:13:57.197Z,95249.53
2024-04-17T00:19:00.472Z,95253.03
2024-04-17T00:24:06.859Z,95252.50
2024-04-17T00:29:10.057Z,95261.75
2024-04-17T00:34:13.147Z,95287.72
2024-04-17T00:39:19.054Z,95304.69
2024-04-17T00:44:22.190Z,95313.66
2024-04-17T00:49:25.395Z,95348.56
2024-04-17T00:54:31.971Z,95331.00
2024-04-17T00:59:35.265Z,95385.66
2024-04-17T01:04:38.378Z,95377.19
2024-04-17T01:09:44.850Z,95370.59
2024-04-17T01:14:47.988Z,95405.25
2024-04-17T01:19:51.198Z,95415.69
2024-04-17T01:24:57.243Z,95403.66
2024-04-17T01:30:00.467Z,95426.06
2024-04-17T01:35:03.719Z,95439.91
2024-04-17T01:40:11.084Z,95449.69
2024-04-17T01:45:14.448Z,95454.59
2024-04-17T01:50:28.271Z,95463.19
2024-04-17T01:55:34.440Z,95485.34
2024-04-17T02:00:37.898Z,95499.06
2024-04-17T02:05:41.063Z,95504.75
2024-04-17T02:10:47.541Z,95514.69
2024-04-17T02:15:50.817Z,95512.09
2024-04-17T02:20:53.974Z,95528.50
2024-04-17T02:25:59.998Z,95538.56
2024-04-17T02:31:03.200Z,95539.38
2024-04-17T02:36:06.934Z,95561.81
2024-04-17T02:41:12.904Z,95569.41
2024-04-17T02:46:16.075Z,95549.03
2024-04-17T02:51:19.232Z,95567.19
2024-04-17T02:56:25.275Z,95565.63
2024-04-17T03:01:28.428Z,95577.16
2024-04-17T03:06:31.565Z,95575.00
2024-04-17T03:11:37.654Z,95571.31
2024-04-17T03:16:40.838Z,95597.34
2024-04-17T03:21:43.947Z,95613.13
2024-04-17T03:26:51.552Z,95617.31
2024-04-17T03:31:54.786Z,95634.09
2024-04-17T03:36:57.957Z,95638.84
2024-04-17T03:42:03.866Z,95643.69
2024-04-17T03:47:07.147Z,95645.06
2024-04-17T03:52:10.280Z,95686.13
2024-04-17T03:57:16.166Z,95670.22
2024-04-17T04:02:19.482Z,95667.00
2024-04-17T04:07:22.919Z,95677.47
2024-04-17T04:12:29.168Z,95677.84
2024-04-17T04:17:32.374Z,95683.50
2024-04-17T04:22:35.628Z,95680.06
2024-04-17T04:27:41.817Z,95673.59
2024-04-17T04:32:44.943Z,95685.97
2024-04-17T04:37:48.111Z,95689.47
2024-04-17T04:42:54.036Z,95704.06
2024-04-17T04:47:57.216Z,95720.19
2024-04-17T04:53:00.417Z,95721.63
2024-04-17T04:58:06.491Z,95725.44
2024-04-17T05:06:14.489Z,95751.41
2024-04-17T05:11:17.588Z,95754.19
2024-04-17T05:16:20.745Z,95767.38
2024-04-17T05:21:26.617Z,95764.00
2024-04-17T05:26:29.779Z,95783.88
2024-04-17T05:31:32.915Z,95791.09
2024-04-17T05:36:38.836Z,95785.91
2024-04-17T05:41:41.937Z,95792.28
2024-04-17T05:46:45.027Z,95799.09
2024-04-17T05:51:51.516Z,95800.31
2024-04-17T05:56:55.799Z,95818.97
2024-04-17T06:01:58.868Z,95823.97
2024-04-17T06:07:05.138Z,95815.34
2024-04-17T06:12:08.415Z,95826.38
2024-04-17T06:17:11.768Z,95844.84
2024-04-17T06:22:17.664Z,95856.03
2024-04-17T06:27:21.071Z,95874.41
2024-04-17T06:32:24.343Z,95876.84
2024-04-17T06:37:30.286Z,95885.63
2024-04-17T06:42:33.371Z,95898.44
2024-04-17T06:47:36.607Z,95911.03
2024-04-17T06:52:42.569Z,95931.66
2024-04-17T06:57:45.715Z,95944.47
2024-04-17T07:02:52.499Z,95962.88
2024-04-17T07:08:05.289Z,95985.06
2024-04-17T07:13:08.586Z,96004.88
2024-04-17T07:18:11.689Z,96015.28
2024-04-17T07:23:17.696Z,96029.28
2024-04-17T07:28:20.815Z,96031.66
2024-04-17T07:33:24.199Z,96043.44
2024-04-17T07:38:30.291Z,96065.03
2024-04-17T07:43:33.828Z,96065.63
2024-04-17T07:48:37.264Z,96076.03
2024-04-17T07:53:43.308Z,96093.03
2024-04-17T07:58:46.439Z,96085.63
2024-04-17T08:03:49.696Z,96092.84
2024-04-17T08:08:56.098Z,96126.44
2024-04-17T08:13:59.194Z,96121.03
2024-04-17T08:19:02.298Z,96142.06
2024-04-17T08:24:08.386Z,96149.84
2024-04-17T08:29:11.532Z,96165.03
2024-04-17T08:34:14.653Z,96175.66
2024-04-17T08:39:20.775Z,96198.03
2024-04-17T08:44:30.962Z,96208.03
2024-04-17T08:49:35.661Z,96235.22
2024-04-17T08:54:42.012Z,96230.63
2024-04-17T08:59:46.570Z,96248.41
2024-04-17T09:04:50.930Z,96261.16
2024-04-17T09:09:57.461Z,96274.38
2024-04-17T09:15:00.900Z,96286.56
2024-04-17T09:20:04.184Z,96289.34
2024-04-17T09:25:17.249Z,96296.91
2024-04-17T09:30:20.864Z,96306.09
2024-04-17T09:35:24.510Z,96332.63
2024-04-17T09:40:31.083Z,96340.63
2024-04-17T09:45:37.455Z,96350.66
2024-04-17T09:50:42.914Z,96376.38
2024-04-17T09:55:49.657Z,96386.41
2024-04-17T10:00:53.814Z,96405.97
2024-04-17T10:05:57.410Z,96427.88
2024-04-17T10:11:04.277Z,96441.25
2024-04-17T10:16:09.485Z,96442.22
2024-04-17T10:21:19.778Z,96461.59
2024-04-17T10:26:25.786Z,96467.75
2024-04-17T10:31:35.834Z,96491.75
2024-04-17T10:36:39.322Z,96506.31
2024-04-17T10:41:45.477Z,96533.72
2024-04-17T10:46:48.686Z,96545.28
2024-04-17T10:51:51.919Z,96556.47
2024-04-17T10:56:59.435Z,96571.00
2024-04-17T11:02:02.543Z,96586.16
2024-04-17T11:07:08.726Z,96583.88
2024-04-17T11:12:17.750Z,96586.66
2024-04-17T11:17:21.523Z,96601.25
2024-04-17T11:22:25.874Z,96623.38
2024-04-17T11:27:32.070Z,96623.13
2024-04-17T11:32:35.450Z,96633.16
2024-04-17T11:37:38.980Z,96650.34
2024-04-17T11:42:45.300Z,96663.50
2024-04-17T11:47:48.497Z,96659.13
2024-04-17T11:52:51.644Z,96677.84
2024-04-17T11:57:58.346Z,96696.53
2024-04-17T12:03:01.587Z,96706.91
2024-04-17T12:08:05.297Z,96708.09
2024-04-17T12:13:11.539Z,96733.41
2024-04-17T12:18:14.693Z,96747.56
2024-04-17T12:23:18.021Z,96771.56
2024-04-17T12:28:23.993Z,96775.78
2024-04-17T12:33:27.146Z,96771.56
2024-04-17T12:38:30.463Z,96789.88
2024-04-17T12:43:36.808Z,96794.41
2024-04-17T12:48:40.023Z,96802.69
2024-04-17T12:53:43.168Z,96804.66
2024-04-17T12:58:49.885Z,96814.88
2024-04-17T13:03:53.043Z,96820.38
2024-04-17T13:08:56.128Z,96811.75
2024-04-17T13:14:02.377Z,96819.75
2024-04-17T13:19:06.185Z,96823.28
2024-04-17T13:24:09.523Z,96831.25
2024-04-17T13:29:15.714Z,96835.72
2024-04-17T13:34:20.529Z,96851.09
2024-04-17T13:39:24.215Z,96844.59
2024-04-17T13:44:30.080Z,96853.47
2024-04-17T13:49:33.373Z,96847.00
2024-04-17T13:54:36.534Z,96847.75
2024-04-17T13:59:42.640Z,96843.94
2024-04-17T14:04:45.749Z,96878.13
2024-04-17T14:09:52.731Z,96873.53
2024-04-17T14:15:01.513Z,96891.25
2024-04-17T14:20:04.806Z,96931.75
2024-04-17T14:25:08.465Z,96939.75
2024-04-17T14:30:14.968Z,96933.06
2024-04-17T14:35:18.637Z,96938.31
2024-04-17T14:40:21.767Z,96909.88
2024-04-17T14:45:27.689Z,96922.34
2024-04-17T14:50:30.768Z,96925.31
2024-04-17T14:55:33.872Z,96920.59
2024-04-17T15:00:46.909Z,96910.84
2024-04-17T15:05:50.439Z,96884.28
2024-04-17T15:11:04.501Z,96924.53
2024-04-17T15:16:11.879Z,96953.34
2024-04-17T15:21:16.127Z,96972.50
2024-04-17T15:26:20.232Z,96996.34
2024-04-17T15:31:26.199Z,97003.97
2024-04-17T15:36:29.441Z,97015.94
2024-04-17T15:41:32.803Z,97017.22
2024-04-17T15:46:38.724Z,97035.97
2024-04-17T15:51:41.865Z,97041.06
2024-04-17T15:56:45.001Z,97077.25
2024-04-17T16:01:51.024Z,97074.78
2024-04-17T16:06:54.249Z,97060.66
2024-04-17T16:11:57.379Z,97057.16
2024-04-17T16:17:03.353Z,97060.44
2024-04-17T16:22:06.757Z,97062.44
2024-04-17T16:27:09.897Z,97072.75
2024-04-17T16:32:15.883Z,97087.81
2024-04-17T16:37:19.022Z,97084.72
2024-04-17T16:42:22.210Z,97093.94
2024-04-17T16:47:28.284Z,97082.75
2024-04-17T16:52:31.593Z,97107.53
2024-04-17T16:57:34.888Z,97108.97
2024-04-17T17:02:42.584Z,97110.34
2024-04-17T17:07:45.704Z,97114.09
2024-04-17T17:12:48.798Z,97126.97
2024-04-17T17:17:54.825Z,97103.28
2024-04-17T17:22:58.222Z,97118.44
2024-04-17T17:28:01.261Z,97106.06
2024-04-17T17:33:07.318Z,97123.25
2024-04-17T17:38:10.506Z,97125.97
2024-04-17T17:43:13.579Z,97125.94
2024-04-17T17:48:19.962Z,97113.97
2024-04-17T17:53:22.672Z,97121.84
2024-04-17T17:58:25.872Z,97109.59
2024-04-17T18:03:31.845Z,97101.88
2024-04-17T18:08:35.741Z,97099.97
2024-04-17T18:13:38.827Z,97098.78
2024-04-17T18:18:44.759Z,97089.72
2024-04-17T18:23:49.854Z,97092.25
2024-04-17T18:28:54.231Z,97100.31
2024-04-17T18:34:00.605Z,97100.56
2024-04-17T18:39:03.883Z,97100.81
2024-04-17T18:44:06.980Z,97096.09
2024-04-17T18:49:12.889Z,97091.66
2024-04-17T18:54:16.228Z,97100.06
2024-04-17T18:59:19.320Z,97106.00
2024-04-17T19:04:25.337Z,97117.94
2024-04-17T19:09:27.990Z,97130.59
2024-04-17T19:14:31.280Z,97114.78
2024-04-17T19:19:37.161Z,97115.75
2024-04-17T19:24:40.459Z,97120.69
2024-04-17T19:29:53.973Z,97142.41
2024-04-17T19:35:08.225Z,97127.63
2024-04-17T19:40:11.830Z,97124.91
2024-04-17T19:45:15.018Z,97121.47
2024-04-17T19:50:20.928Z,97119.28
2024-04-17T19:55:24.069Z,97121.72
2024-04-17T20:00:27.210Z,97133.63
2024-04-17T20:05:33.477Z,97109.88
2024-04-17T20:10:36.943Z,97109.97
2024-04-17T20:15:40.203Z,97131.66
2024-04-17T20:20:55.886Z,97130.91
2024-04-17T20:26:03.895Z,97117.00
2024-04-17T20:31:09.156Z,97099.84
2024-04-17T20:36:15.739Z,97110.22
2024-04-17T20:41:18.941Z,97072.78
2024-04-17T20:46:22.053Z,97084.63
2024-04-17T20:51:27.993Z,97078.50
2024-04-17T20:56:31.058Z,97091.56
2024-04-17T21:01:37.210Z,97082.50
2024-04-17T21:06:45.983Z,97065.06
2024-04-17T21:11:51.077Z,97068.53
2024-04-17T21:16:55.453Z,97076.25
2024-04-17T21:22:01.472Z,97061.53
2024-04-17T21:27:07.490Z,97042.38
2024-04-17T21:32:10.599Z,97031.75
2024-04-17T21:37:19.433Z,97014.00
2024-04-17T21:42:22.857Z,96996.53
2024-04-17T21:47:26.224Z,96987.66
2024-04-17T21:52:32.257Z,96987.78
2024-04-17T21:57:35.460Z,96982.97
2024-04-17T22:02:39.615Z,96990.13
2024-04-17T22:07:46.858Z,97003.69
2024-04-17T22:12:50.106Z,97010.00
2024-04-17T22:17:55.407Z,97016.84
2024-04-17T22:23:01.418Z,96991.28
2024-04-17T22:28:06.063Z,96990.41
2024-04-17T22:33:09.616Z,96990.56
2024-04-17T22:38:15.655Z,97004.63
2024-04-17T22:43:18.751Z,97001.63
2024-04-17T22:48:22.011Z,97007.44
2024-04-17T22:53:28.092Z,97007.66
2024-04-17T22:58:31.232Z,97015.44
2024-04-17T23:03:34.402Z,97018.03
2024-04-17T23:08:40.616Z,97031.00
2024-04-17T23:13:43.118Z,97033.50
2024-04-17T23:18:46.272Z,97037.34
2024-04-17T23:23:52.177Z,97050.63
2024-04-17T23:28:56.360Z,97051.63
2024-04-17T23:33:59.477Z,97057.16
2024-04-17T23:39:05.500Z,97061.75
2024-04-17T23:44:08.634Z,97075.66
2024-04-17T23:49:12.511Z,97079.34
2024-04-17T23:54:18.654Z,97090.44
2024-04-17T23:59:21.812Z,97086.50
